Time;durP1;ratioP1;P1;durP2;ratioP2;P2;SDS_P1;SDS_P2;PMS_P1;PMS_P2;Temp;Humidity;BMP_temperature;BMP_pressure;BME280_temperature;BME280_humidity;BME280_pressure;Samples;Min_cycle;Max_cycle;Signal;HPM_P1;HPM_P2
2022/05/16 00:00:01;;;;;;;0.80;0.70;;;20.90;99.90;;;;;;4928716;29;20468;-67
2022/05/16 00:02:32;;;;;;;0.83;0.60;;;21.00;99.90;;;;;;4931000;29;20465;-66
2022/05/16 00:05:02;;;;;;;0.97;0.50;;;21.30;99.90;;;;;;4946845;29;20479;-65
2022/05/16 00:07:35;;;;;;;0.50;0.50;;;21.30;99.90;;;;;;4929114;29;20469;-66
2022/05/16 00:10:07;;;;;;;0.60;0.50;;;21.40;99.90;;;;;;4927532;29;20818;-67
2022/05/16 00:12:39;;;;;;;0.93;0.40;;;21.30;99.90;;;;;;4928046;29;20467;-68
2022/05/16 00:15:12;;;;;;;0.57;0.30;;;21.30;99.90;;;;;;4940314;29;20435;-66
2022/05/16 00:17:44;;;;;;;0.40;0.40;;;21.30;99.90;;;;;;4935362;29;20981;-67
2022/05/16 00:20:15;;;;;;;0.50;0.50;;;21.20;99.90;;;;;;4947169;29;20436;-66
2022/05/16 00:22:48;;;;;;;0.40;0.37;;;21.10;99.90;;;;;;4946611;29;20440;-66
2022/05/16 00:25:19;;;;;;;0.40;0.40;;;20.90;99.90;;;;;;4928244;29;20465;-65
2022/05/16 00:27:50;;;;;;;0.40;0.30;;;20.90;99.90;;;;;;4935601;29;20440;-67
2022/05/16 00:30:21;;;;;;;1.40;0.60;;;21.00;99.90;;;;;;4948376;29;20421;-68
2022/05/16 00:32:52;;;;;;;0.93;0.40;;;21.00;99.90;;;;;;4947790;29;20432;-67
2022/05/16 00:35:24;;;;;;;1.27;0.60;;;21.10;99.90;;;;;;4932461;29;20507;-67
2022/05/16 00:37:57;;;;;;;0.97;0.40;;;21.30;99.90;;;;;;4939673;29;20458;-67
2022/05/16 00:40:28;;;;;;;1.67;0.60;;;21.50;99.90;;;;;;4927601;29;20438;-66
2022/05/16 00:43:04;;;;;;;0.70;0.60;;;21.60;99.90;;;;;;4928543;29;20437;-66
2022/05/16 00:45:36;;;;;;;0.53;0.53;;;21.50;99.90;;;;;;4933743;29;20481;-66
2022/05/16 00:48:08;;;;;;;0.90;0.70;;;21.40;99.90;;;;;;4937727;29;20494;-64
2022/05/16 00:50:40;;;;;;;1.50;0.70;;;21.30;99.90;;;;;;4927594;29;20463;-66
2022/05/16 00:53:13;;;;;;;1.23;0.77;;;21.20;99.90;;;;;;4930332;29;20458;-66
2022/05/16 00:55:44;;;;;;;0.97;0.70;;;21.10;99.90;;;;;;4941044;29;20473;-65
2022/05/16 00:58:17;;;;;;;0.73;0.73;;;21.20;99.90;;;;;;4934964;29;20451;-66
2022/05/16 01:00:49;;;;;;;0.90;0.80;;;21.30;99.90;;;;;;4933217;29;20478;-66
2022/05/16 01:06:11;;;;;;;2.40;0.90;;;21.50;99.90;;;;;;4936585;29;20496;-65
2022/05/16 01:08:44;;;;;;;1.30;1.17;;;21.20;99.90;;;;;;4933238;29;20459;-66
2022/05/16 01:11:16;;;;;;;1.67;0.97;;;20.80;99.90;;;;;;4942386;29;20450;-66
2022/05/16 01:13:48;;;;;;;1.40;1.30;;;20.80;99.90;;;;;;4940948;29;20493;-67
2022/05/16 01:16:19;;;;;;;1.30;1.20;;;20.70;99.90;;;;;;4938022;29;20448;-65
2022/05/16 01:18:49;;;;;;;3.23;1.60;;;20.60;99.90;;;;;;4935290;29;20508;-67
2022/05/16 01:21:32;;;;;;;2.80;2.50;;;20.40;99.90;;;;;;4936273;29;20433;-66
2022/05/16 01:24:08;;;;;;;4.20;2.30;;;20.30;99.90;;;;;;4931582;29;20521;-65
2022/05/16 01:26:39;;;;;;;1.90;1.80;;;20.00;99.90;;;;;;4941301;29;20452;-66
2022/05/16 01:29:10;;;;;;;2.10;1.90;;;19.90;99.90;;;;;;4939742;29;20481;-66
2022/05/16 01:31:44;;;;;;;2.43;2.00;;;19.90;99.90;;;;;;4937688;29;20455;-65
2022/05/16 01:34:15;;;;;;;2.03;1.93;;;19.80;99.90;;;;;;4938781;29;20444;-66
2022/05/16 01:36:46;;;;;;;2.00;1.80;;;19.70;99.90;;;;;;4944000;29;20465;-66
2022/05/16 01:39:18;;;;;;;2.70;2.40;;;19.70;99.90;;;;;;4943052;29;20527;-63
2022/05/16 01:41:49;;;;;;;1.90;1.80;;;19.50;99.90;;;;;;4944321;29;20448;-65
2022/05/16 01:44:20;;;;;;;3.97;2.20;;;19.50;99.90;;;;;;4938775;29;20479;-65
2022/05/16 01:46:52;;;;;;;3.53;1.83;;;19.50;99.90;;;;;;4934105;29;20465;-66
2022/05/16 01:49:23;;;;;;;2.43;1.87;;;19.50;99.90;;;;;;4938760;29;20467;-64
2022/05/16 01:51:53;;;;;;;1.80;1.70;;;19.60;99.90;;;;;;4932374;29;20444;-64
2022/05/16 01:54:26;;;;;;;2.00;1.80;;;19.40;99.90;;;;;;4929662;29;20973;-65
2022/05/16 01:56:56;;;;;;;2.43;2.23;;;19.40;99.90;;;;;;4934523;29;20436;-65
2022/05/16 01:59:27;;;;;;;2.43;1.90;;;19.40;99.90;;;;;;4938508;29;20480;-68
2022/05/16 02:01:58;;;;;;;5.20;2.20;;;19.20;99.90;;;;;;4944172;29;20476;-67
2022/05/16 02:04:30;;;;;;;2.83;1.80;;;19.20;99.90;;;;;;4941414;29;20821;-66
2022/05/16 02:07:01;;;;;;;2.07;1.87;;;19.10;99.90;;;;;;4938096;29;20445;-65
2022/05/16 02:09:33;;;;;;;2.67;2.37;;;18.90;99.90;;;;;;4931061;29;20477;-66
2022/05/16 02:12:05;;;;;;;3.00;2.30;;;18.90;99.90;;;;;;4935934;29;20471;-67
2022/05/16 02:14:38;;;;;;;2.40;2.10;;;18.90;99.90;;;;;;4938287;29;20508;-66
2022/05/16 02:17:09;;;;;;;2.40;2.20;;;18.90;99.90;;;;;;4935194;29;20754;-65
2022/05/16 02:19:45;;;;;;;3.00;2.30;;;18.80;99.90;;;;;;4932189;29;20466;-67
2022/05/16 02:25:07;;;;;;;2.43;2.23;;;18.90;99.90;;;;;;4940163;29;20495;-65
2022/05/16 02:27:38;;;;;;;3.17;2.37;;;18.80;99.90;;;;;;4926340;29;20545;-66
2022/05/16 02:30:10;;;;;;;3.07;2.40;;;18.80;99.90;;;;;;4926109;29;20448;-67
2022/05/16 02:32:41;;;;;;;2.60;2.40;;;18.80;99.90;;;;;;4926995;29;20467;-67
2022/05/16 02:35:12;;;;;;;3.73;2.60;;;18.80;99.90;;;;;;4936589;29;20477;-67
2022/05/16 02:37:44;;;;;;;2.37;2.17;;;18.70;99.90;;;;;;4945233;29;20845;-66
2022/05/16 02:40:23;;;;;;;4.63;2.50;;;18.80;99.90;;;;;;4926406;29;20456;-68
2022/05/16 02:42:54;;;;;;;2.60;2.40;;;18.70;99.90;;;;;;4935993;29;20863;-67
2022/05/16 02:45:25;;;;;;;2.40;2.07;;;18.80;99.90;;;;;;4931067;29;20482;-67
2022/05/16 02:47:57;;;;;;;2.50;2.30;;;18.80;99.90;;;;;;4944380;29;20454;-68
2022/05/16 02:50:28;;;;;;;2.43;2.23;;;18.70;99.90;;;;;;4941089;29;20463;-67
2022/05/16 02:52:59;;;;;;;3.10;2.37;;;18.60;99.90;;;;;;4936724;29;20454;-67
2022/05/16 02:55:32;;;;;;;3.40;2.30;;;18.60;99.90;;;;;;4936801;29;20561;-68
2022/05/16 02:58:03;;;;;;;3.07;2.13;;;18.50;99.90;;;;;;4933825;29;20476;-67
2022/05/16 03:00:34;;;;;;;4.30;2.43;;;18.60;99.90;;;;;;4935563;29;20469;-67
2022/05/16 03:03:05;;;;;;;3.33;2.17;;;18.40;99.90;;;;;;4935854;29;20476;-67
2022/05/16 03:05:36;;;;;;;2.77;2.50;;;18.40;99.90;;;;;;4933724;29;20501;-67
2022/05/16 03:08:07;;;;;;;3.73;2.13;;;18.40;99.90;;;;;;4943385;29;20461;-68
2022/05/16 03:10:40;;;;;;;4.20;2.07;;;18.40;99.90;;;;;;4930706;29;20462;-66
2022/05/16 03:13:11;;;;;;;2.27;2.13;;;18.20;99.90;;;;;;4929651;29;20493;-67
2022/05/16 03:15:42;;;;;;;2.50;2.30;;;18.10;99.90;;;;;;4940185;29;20473;-68
2022/05/16 03:18:13;;;;;;;2.50;2.30;;;18.00;99.90;;;;;;4945723;29;20488;-66
2022/05/16 03:20:44;;;;;;;4.23;2.43;;;18.00;99.90;;;;;;4931682;29;20454;-65
2022/05/16 03:23:15;;;;;;;2.00;1.90;;;18.10;99.90;;;;;;4928531;29;20469;-68
2022/05/16 03:25:47;;;;;;;2.93;2.50;;;17.90;99.90;;;;;;4940215;29;20846;-65
2022/05/16 03:28:18;;;;;;;2.27;2.13;;;17.90;99.90;;;;;;4947778;29;20458;-66
2022/05/16 03:30:50;;;;;;;2.43;2.23;;;17.90;99.90;;;;;;4936664;29;20464;-66
2022/05/16 03:33:21;;;;;;;2.37;2.17;;;17.90;99.90;;;;;;4928966;29;20514;-68
2022/05/16 03:35:59;;;;;;;3.50;2.77;;;17.90;99.90;;;;;;4940891;29;20441;-67
2022/05/16 03:41:33;;;;;;;3.10;2.80;;;17.80;99.90;;;;;;4892115;29;21003;-67
2022/05/16 03:44:04;;;;;;;3.27;2.53;;;17.70;99.90;;;;;;4888752;29;20471;-68
2022/05/16 03:46:37;;;;;;;3.30;2.80;;;17.80;99.90;;;;;;4902265;29;20511;-68
2022/05/16 03:49:08;;;;;;;2.90;2.57;;;17.70;99.90;;;;;;4894967;29;20510;-68
2022/05/16 03:51:40;;;;;;;3.03;2.73;;;17.80;99.90;;;;;;4904706;29;20483;-69
2022/05/16 03:54:11;;;;;;;2.60;2.40;;;17.70;99.90;;;;;;4898676;29;20460;-68
2022/05/16 03:56:44;;;;;;;3.17;2.63;;;17.50;99.90;;;;;;4893998;29;20464;-69
2022/05/16 03:59:14;;;;;;;2.80;2.37;;;17.60;99.90;;;;;;4902009;29;20470;-67
2022/05/16 04:01:45;;;;;;;1.80;1.70;;;17.60;99.90;;;;;;4897206;29;20831;-68
2022/05/16 04:04:16;;;;;;;2.20;2.00;;;17.60;99.90;;;;;;4900309;29;20471;-67
2022/05/16 04:06:47;;;;;;;2.33;2.13;;;17.50;99.90;;;;;;4901658;29;20484;-66
2022/05/16 04:09:18;;;;;;;3.97;1.80;;;17.60;99.90;;;;;;4887828;29;20464;-67
2022/05/16 04:11:50;;;;;;;2.53;2.30;;;17.50;99.90;;;;;;4897961;29;20547;-69
2022/05/16 04:14:21;;;;;;;2.67;2.13;;;17.50;99.90;;;;;;4896280;29;20986;-69
2022/05/16 04:16:52;;;;;;;2.20;2.00;;;17.40;99.90;;;;;;4935086;29;20469;-67
2022/05/16 04:19:23;;;;;;;3.20;2.23;;;17.30;99.90;;;;;;4936884;29;20478;-68
2022/05/16 04:21:54;;;;;;;2.30;2.10;;;17.30;99.90;;;;;;4931267;29;20466;-67
2022/05/16 04:24:25;;;;;;;1.87;1.67;;;17.30;99.90;;;;;;4935156;29;20458;-67
2022/05/16 04:26:57;;;;;;;1.67;1.37;;;17.20;99.90;;;;;;4942780;29;20509;-68
2022/05/16 04:29:28;;;;;;;2.33;2.13;;;17.20;99.90;;;;;;4931399;29;20497;-66
2022/05/16 04:31:59;;;;;;;2.37;2.13;;;17.20;99.90;;;;;;4927592;29;20467;-67
2022/05/16 04:34:30;;;;;;;3.37;2.23;;;17.30;99.90;;;;;;4928765;29;20510;-67
2022/05/16 04:37:00;;;;;;;1.53;1.43;;;17.30;99.90;;;;;;4941851;29;20471;-66
2022/05/16 04:39:31;;;;;;;2.40;2.20;;;17.30;99.90;;;;;;4929338;29;20454;-67
2022/05/16 04:44:52;;;;;;;3.37;2.03;;;17.10;99.90;;;;;;4935262;29;20466;-66
2022/05/16 04:47:23;;;;;;;2.43;2.23;;;17.10;99.90;;;;;;4938129;29;20493;-67
2022/05/16 04:49:54;;;;;;;2.00;1.57;;;17.10;99.90;;;;;;4945542;29;20469;-66
2022/05/16 04:52:28;;;;;;;1.70;1.60;;;17.20;99.90;;;;;;4944660;29;20573;-67
2022/05/16 04:55:01;;;;;;;1.40;1.30;;;17.20;99.90;;;;;;4938430;29;20458;-66
2022/05/16 04:57:33;;;;;;;1.43;1.37;;;17.10;99.90;;;;;;4934367;29;20550;-66
2022/05/16 05:00:05;;;;;;;1.63;0.90;;;17.00;99.90;;;;;;4942922;29;20466;-67
2022/05/16 05:02:35;;;;;;;1.27;1.13;;;17.00;99.90;;;;;;4932364;29;20470;-67
2022/05/16 05:05:07;;;;;;;0.80;0.80;;;16.90;99.90;;;;;;4929617;29;20454;-66
2022/05/16 05:07:39;;;;;;;1.67;0.90;;;16.90;99.90;;;;;;4935205;29;20483;-67
2022/05/16 05:15:49;;;;;;;1.00;0.90;;;16.80;99.90;;;;;;4933776;29;20517;-66
2022/05/16 05:18:19;;;;;;;0.80;0.80;;;16.70;99.90;;;;;;4932174;29;20473;-66
2022/05/16 05:20:50;;;;;;;1.70;0.90;;;16.70;99.90;;;;;;4941175;29;20450;-66
2022/05/16 05:23:21;;;;;;;1.13;1.03;;;16.70;99.90;;;;;;4926652;29;20466;-67
2022/05/16 05:25:51;;;;;;;1.00;0.90;;;16.80;99.90;;;;;;4938049;29;20466;-67
2022/05/16 05:28:25;;;;;;;0.83;0.83;;;16.80;99.90;;;;;;4932814;29;20450;-66
2022/05/16 05:30:57;;;;;;;1.07;1.00;;;16.70;99.90;;;;;;4931792;29;20466;-66
2022/05/16 05:33:28;;;;;;;0.80;0.80;;;16.80;99.90;;;;;;4939593;29;21091;-67
2022/05/16 05:36:00;;;;;;;0.70;0.70;;;16.80;99.90;;;;;;4938224;29;20469;-66
2022/05/16 05:38:31;;;;;;;0.70;0.70;;;16.80;99.90;;;;;;4934622;29;20497;-66
2022/05/16 05:41:02;;;;;;;1.27;0.60;;;16.70;99.90;;;;;;4930246;29;20453;-67
2022/05/16 05:43:35;;;;;;;2.40;0.80;;;16.70;99.90;;;;;;4944710;29;20462;-66
2022/05/16 05:46:06;;;;;;;0.80;0.80;;;16.70;99.90;;;;;;4931533;29;20466;-67
2022/05/16 05:48:37;;;;;;;1.00;0.93;;;16.70;99.90;;;;;;4933684;29;20540;-66
2022/05/16 05:51:08;;;;;;;1.37;0.70;;;16.70;99.90;;;;;;4941302;29;20470;-66
2022/05/16 05:53:41;;;;;;;0.50;0.50;;;16.60;99.90;;;;;;4941348;29;20485;-66
2022/05/16 05:56:13;;;;;;;0.77;0.57;;;16.60;99.90;;;;;;4932874;29;20463;-66
2022/05/16 05:58:46;;;;;;;0.60;0.60;;;16.60;99.90;;;;;;4942621;29;20466;-66
2022/05/16 06:01:17;;;;;;;0.50;0.50;;;16.50;99.90;;;;;;4929935;29;20537;-66
2022/05/16 06:03:48;;;;;;;0.53;0.53;;;16.50;99.90;;;;;;4927634;29;20486;-66
2022/05/16 06:06:19;;;;;;;0.70;0.70;;;16.50;99.90;;;;;;4927288;29;20810;-67
2022/05/16 06:08:50;;;;;;;0.40;0.40;;;16.50;99.90;;;;;;4943546;29;20468;-66
2022/05/16 06:11:27;;;;;;;0.67;0.40;;;16.40;99.90;;;;;;4945206;29;20446;-66
2022/05/16 06:14:00;;;;;;;0.60;0.50;;;16.30;99.90;;;;;;4944250;29;20485;-66
2022/05/16 06:16:30;;;;;;;1.57;0.50;;;16.20;99.90;;;;;;4931558;29;20482;-67
2022/05/16 06:19:01;;;;;;;1.43;0.53;;;16.20;99.90;;;;;;4931388;29;20477;-67
2022/05/16 06:21:32;;;;;;;0.60;0.40;;;16.20;99.90;;;;;;4931566;29;20587;-67
2022/05/16 06:24:03;;;;;;;0.70;0.70;;;16.20;99.90;;;;;;4934119;29;20484;-66
2022/05/16 06:26:34;;;;;;;0.60;0.30;;;16.10;99.90;;;;;;4928661;29;20473;-66
2022/05/16 06:29:06;;;;;;;0.90;0.40;;;16.00;99.90;;;;;;4942309;29;20461;-66
2022/05/16 06:31:37;;;;;;;0.50;0.40;;;16.00;99.90;;;;;;4941330;29;20593;-66
2022/05/16 06:34:08;;;;;;;0.70;0.40;;;16.00;99.90;;;;;;4939930;29;20466;-66
2022/05/16 06:36:39;;;;;;;0.40;0.33;;;16.00;99.90;;;;;;4942672;29;20475;-67
2022/05/16 06:39:09;;;;;;;1.07;0.53;;;15.90;99.90;;;;;;4937717;29;20447;-67
2022/05/16 06:41:43;;;;;;;0.93;0.50;;;15.90;99.90;;;;;;4942843;29;20461;-66
2022/05/16 06:44:16;;;;;;;1.03;0.63;;;15.90;99.90;;;;;;4942979;29;20617;-66
2022/05/16 06:46:46;;;;;;;0.50;0.40;;;15.90;99.90;;;;;;4939389;29;20462;-66
2022/05/16 06:49:17;;;;;;;0.80;0.37;;;15.80;99.90;;;;;;4937247;29;20481;-66
2022/05/16 06:51:48;;;;;;;0.63;0.43;;;15.80;99.90;;;;;;4939847;29;22612;-66
2022/05/16 06:54:19;;;;;;;0.60;0.50;;;15.70;99.90;;;;;;4943819;29;20471;-66
2022/05/16 06:56:50;;;;;;;2.03;0.40;;;15.60;99.90;;;;;;4934904;29;20472;-66
2022/05/16 06:59:22;;;;;;;0.70;0.40;;;15.60;99.90;;;;;;4929664;29;20463;-66
2022/05/16 07:01:53;;;;;;;0.40;0.40;;;15.60;99.90;;;;;;4930824;29;20836;-66
2022/05/16 07:04:24;;;;;;;0.60;0.40;;;15.50;99.90;;;;;;4944378;29;20474;-65
2022/05/16 07:06:55;;;;;;;1.53;0.47;;;15.50;99.90;;;;;;4931620;29;20492;-67
2022/05/16 07:09:27;;;;;;;0.60;0.50;;;15.40;99.90;;;;;;4939132;29;20462;-66
2022/05/16 07:11:58;;;;;;;1.37;0.50;;;15.30;99.90;;;;;;4934149;29;20462;-66
2022/05/16 07:14:30;;;;;;;1.73;0.50;;;15.20;99.90;;;;;;4946423;29;20509;-65
2022/05/16 07:17:01;;;;;;;0.47;0.47;;;15.10;99.90;;;;;;4946053;29;20466;-67
2022/05/16 07:19:34;;;;;;;0.73;0.53;;;15.10;99.90;;;;;;4946405;29;20470;-66
2022/05/16 07:22:09;;;;;;;0.77;0.40;;;15.00;99.90;;;;;;4941406;29;20478;-66
2022/05/16 07:24:42;;;;;;;0.53;0.50;;;15.00;99.90;;;;;;4931445;29;21012;-67
2022/05/16 07:30:03;;;;;;;1.10;0.40;;;15.00;99.90;;;;;;4933724;29;20465;-66
2022/05/16 07:32:41;;;;;;;0.60;0.60;;;15.00;99.90;;;;;;4938259;29;20473;-66
2022/05/16 07:35:14;;;;;;;0.70;0.60;;;14.90;99.90;;;;;;4932506;29;20530;-67
2022/05/16 07:37:45;;;;;;;1.00;0.40;;;14.80;99.90;;;;;;4933492;29;20503;-65
2022/05/16 07:40:16;;;;;;;1.63;0.70;;;14.80;99.90;;;;;;4933945;29;20477;-65
2022/05/16 07:42:47;;;;;;;0.60;0.50;;;14.80;99.90;;;;;;4942839;29;21038;-66
2022/05/16 07:45:21;;;;;;;0.80;0.50;;;14.80;99.90;;;;;;4937952;29;20462;-66
2022/05/16 07:47:52;;;;;;;0.40;0.40;;;14.80;99.90;;;;;;4945151;29;20504;-66
2022/05/16 07:50:25;;;;;;;1.30;0.70;;;14.80;99.90;;;;;;4944270;29;20474;-65
2022/05/16 07:52:57;;;;;;;0.70;0.40;;;14.80;99.90;;;;;;4945496;29;20536;-65
2022/05/16 07:55:28;;;;;;;0.53;0.53;;;14.80;99.90;;;;;;4935976;29;20805;-66
2022/05/16 07:57:59;;;;;;;0.77;0.60;;;14.80;99.90;;;;;;4939393;29;20470;-65
2022/05/16 08:00:31;;;;;;;0.57;0.40;;;14.80;99.90;;;;;;4945553;29;20458;-66
2022/05/16 08:03:04;;;;;;;0.60;0.53;;;14.80;99.90;;;;;;4935933;29;20480;-66
2022/05/16 08:05:36;;;;;;;0.47;0.40;;;14.80;99.90;;;;;;4943346;29;20485;-66
2022/05/16 08:10:58;;;;;;;2.03;0.40;;;14.90;99.90;;;;;;4939346;29;20508;-66
2022/05/16 08:13:30;;;;;;;0.40;0.40;;;14.90;99.90;;;;;;4942686;29;20500;-67
2022/05/16 08:16:03;;;;;;;0.40;0.40;;;14.90;99.90;;;;;;4942121;29;20477;-67
2022/05/16 08:18:34;;;;;;;1.53;0.50;;;15.00;99.90;;;;;;4945010;29;20469;-66
2022/05/16 08:21:05;;;;;;;0.60;0.33;;;15.00;99.90;;;;;;4945425;29;20486;-65
2022/05/16 08:23:36;;;;;;;0.50;0.40;;;15.00;99.90;;;;;;4941020;29;20470;-65
2022/05/16 08:26:08;;;;;;;0.50;0.50;;;15.00;99.90;;;;;;4935631;29;20466;-65
2022/05/16 08:28:39;;;;;;;0.90;0.37;;;15.00;99.90;;;;;;4935305;29;20497;-66
2022/05/16 08:31:11;;;;;;;0.40;0.40;;;14.90;99.90;;;;;;4943897;29;20466;-66
2022/05/16 08:33:43;;;;;;;0.50;0.50;;;14.90;99.90;;;;;;4940763;29;20469;-66
2022/05/16 08:41:53;;;;;;;1.00;0.53;;;15.00;99.90;;;;;;4941935;29;20465;-66
2022/05/16 08:44:30;;;;;;;1.60;0.50;;;14.90;99.90;;;;;;4933749;29;20532;-66
2022/05/16 08:47:27;;;;;;;0.60;0.50;;;15.00;99.90;;;;;;4944726;29;20554;-67
2022/05/16 08:50:01;;;;;;;0.60;0.60;;;14.90;99.90;;;;;;4944144;29;20497;-66
2022/05/16 08:52:40;;;;;;;0.50;0.40;;;14.80;99.90;;;;;;4940902;29;20466;-66
2022/05/16 08:55:21;;;;;;;0.57;0.47;;;14.90;99.90;;;;;;4935460;29;20469;-66
2022/05/16 08:57:57;;;;;;;0.63;0.60;;;14.90;99.90;;;;;;4936600;29;20488;-66
2022/05/16 09:00:34;;;;;;;1.77;0.70;;;14.80;99.90;;;;;;4931867;29;20497;-66
2022/05/16 09:03:10;;;;;;;0.63;0.60;;;14.70;99.90;;;;;;4937682;29;20477;-66
2022/05/16 09:05:47;;;;;;;0.70;0.40;;;14.70;99.90;;;;;;4936677;29;20462;-66
2022/05/16 09:08:40;;;;;;;0.80;0.40;;;14.60;99.90;;;;;;4942863;29;20511;-66
2022/05/16 09:11:15;;;;;;;0.70;0.70;;;14.60;99.90;;;;;;4939626;29;20493;-66
2022/05/16 09:13:55;;;;;;;0.83;0.57;;;14.60;99.90;;;;;;4940999;29;20505;-66
2022/05/16 09:16:37;;;;;;;0.60;0.60;;;14.60;99.90;;;;;;4930681;29;20460;-67
2022/05/16 09:19:29;;;;;;;0.93;0.60;;;14.60;99.90;;;;;;4940029;29;20572;-66
2022/05/16 09:22:09;;;;;;;0.90;0.80;;;14.60;99.90;;;;;;4941722;29;20530;-65
2022/05/16 09:24:45;;;;;;;0.83;0.60;;;14.50;99.90;;;;;;4942307;29;20470;-66
2022/05/16 09:30:09;;;;;;;0.60;0.60;;;14.60;99.90;;;;;;4928669;29;20494;-65
2022/05/16 09:32:43;;;;;;;1.03;0.80;;;14.70;99.90;;;;;;4937445;29;20470;-66
2022/05/16 09:35:27;;;;;;;1.50;0.73;;;14.70;99.90;;;;;;4934193;29;20462;-65
2022/05/16 09:38:00;;;;;;;0.70;0.60;;;14.80;99.90;;;;;;4931182;29;20479;-66
2022/05/16 09:40:37;;;;;;;0.50;0.50;;;14.80;99.90;;;;;;4933372;29;20492;-66
2022/05/16 09:43:09;;;;;;;0.80;0.50;;;14.80;99.90;;;;;;4942010;29;20485;-65
2022/05/16 09:45:43;;;;;;;0.63;0.40;;;14.80;99.90;;;;;;4943234;29;20544;-66
2022/05/16 09:48:19;;;;;;;1.77;0.50;;;14.80;99.90;;;;;;4938064;29;20473;-67
2022/05/16 09:51:02;;;;;;;0.47;0.47;;;14.80;99.90;;;;;;4930159;29;20462;-66
2022/05/16 09:53:36;;;;;;;1.17;0.60;;;14.80;99.90;;;;;;4939545;29;20472;-65
2022/05/16 09:56:16;;;;;;;0.50;0.40;;;14.70;99.90;;;;;;4940229;29;20524;-65
2022/05/16 09:58:51;;;;;;;0.40;0.30;;;14.70;99.90;;;;;;4939789;29;20547;-65
2022/05/16 10:01:33;;;;;;;0.80;0.50;;;14.70;99.90;;;;;;4940676;29;20845;-65
2022/05/16 10:04:15;;;;;;;0.60;0.60;;;14.70;99.90;;;;;;4941576;29;20512;-65
2022/05/16 10:07:02;;;;;;;0.73;0.50;;;14.70;99.90;;;;;;4942696;29;20469;-65
2022/05/16 10:09:38;;;;;;;2.50;0.73;;;14.70;99.90;;;;;;4943012;29;20493;-66
2022/05/16 10:12:13;;;;;;;0.60;0.60;;;14.60;99.90;;;;;;4932083;29;20461;-66
2022/05/16 10:14:44;;;;;;;0.67;0.30;;;14.70;99.90;;;;;;4938817;29;20482;-66
2022/05/16 10:17:21;;;;;;;0.50;0.50;;;14.60;99.90;;;;;;4937933;29;20557;-68
2022/05/16 10:20:00;;;;;;;0.47;0.40;;;14.60;99.90;;;;;;4937781;29;20810;-66
2022/05/16 10:22:33;;;;;;;0.70;0.50;;;14.60;99.90;;;;;;4936847;29;20841;-65
2022/05/16 10:25:32;;;;;;;0.40;0.30;;;14.60;99.90;;;;;;4931385;29;20816;-65
2022/05/16 10:28:05;;;;;;;1.23;0.30;;;14.60;99.90;;;;;;4926586;29;20477;-66
2022/05/16 10:33:24;;;;;;;0.40;0.40;;;14.60;99.90;;;;;;4943518;29;20490;-65
2022/05/16 10:33:30;;;;;;;1.27;0.30;;;14.60;99.90;;;;;;4942384;29;20572;-67
2022/05/16 10:36:04;;;;;;;0.50;0.50;;;14.60;99.90;;;;;;4929623;29;20477;-66
2022/05/16 10:38:44;;;;;;;0.70;0.50;;;14.50;99.90;;;;;;4925202;29;20459;-65
2022/05/16 10:41:21;;;;;;;1.03;0.93;;;14.60;99.90;;;;;;4941858;29;20488;-65
2022/05/16 10:44:01;;;;;;;0.50;0.50;;;14.50;99.90;;;;;;4943805;29;20473;-65
2022/05/16 10:46:36;;;;;;;0.40;0.40;;;14.50;99.90;;;;;;4937837;29;20488;-65
2022/05/16 10:49:12;;;;;;;0.70;0.50;;;14.50;99.90;;;;;;4935913;29;20565;-65
2022/05/16 10:51:51;;;;;;;0.60;0.43;;;14.50;99.90;;;;;;4935468;29;20465;-66
2022/05/16 10:54:24;;;;;;;0.50;0.30;;;14.40;99.90;;;;;;4930229;29;20465;-65
2022/05/16 10:57:29;;;;;;;0.93;0.63;;;14.50;99.90;;;;;;4935075;29;20470;-65
2022/05/16 11:00:19;;;;;;;0.93;0.60;;;14.50;99.90;;;;;;4940753;29;20821;-66
2022/05/16 11:03:41;;;;;;;0.53;0.53;;;14.60;99.90;;;;;;4934882;29;20469;-66
2022/05/16 11:06:32;;;;;;;0.73;0.40;;;14.60;99.90;;;;;;4874437;29;20469;-66
2022/05/16 11:09:09;;;;;;;1.23;0.60;;;14.50;99.90;;;;;;4883450;29;20873;-66
2022/05/16 11:11:49;;;;;;;0.67;0.67;;;14.50;99.90;;;;;;4879662;29;20548;-67
2022/05/16 11:14:28;;;;;;;0.60;0.40;;;14.40;99.90;;;;;;4877677;29;20496;-66
2022/05/16 11:17:04;;;;;;;1.37;0.50;;;14.40;99.90;;;;;;4879868;29;20593;-65
2022/05/16 11:19:50;;;;;;;0.87;0.57;;;14.50;99.90;;;;;;4877664;29;20504;-67
2022/05/16 11:22:30;;;;;;;0.50;0.40;;;14.40;99.90;;;;;;4877247;29;20840;-65
2022/05/16 11:25:09;;;;;;;0.50;0.50;;;14.40;99.90;;;;;;4878872;29;20985;-65
2022/05/16 11:27:57;;;;;;;0.40;0.30;;;14.40;99.90;;;;;;4875906;29;20472;-65
2022/05/16 11:30:39;;;;;;;1.93;0.50;;;14.40;99.90;;;;;;4881391;29;20522;-65
2022/05/16 11:33:19;;;;;;;0.57;0.40;;;14.40;99.90;;;;;;4870055;29;20981;-65
2022/05/16 11:35:52;;;;;;;0.40;0.30;;;14.30;99.90;;;;;;4884076;29;20468;-65
2022/05/16 11:38:40;;;;;;;2.10;0.50;;;14.30;99.90;;;;;;4870945;29;20461;-66
2022/05/16 11:41:25;;;;;;;0.57;0.30;;;14.30;99.90;;;;;;4895147;29;20474;-66
2022/05/16 11:44:10;;;;;;;0.60;0.30;;;14.30;99.90;;;;;;4936911;29;20480;-66
2022/05/16 11:46:46;;;;;;;0.40;0.23;;;14.20;99.90;;;;;;4940210;29;20479;-66
2022/05/16 11:49:48;;;;;;;0.97;0.30;;;14.20;99.90;;;;;;4939667;29;20493;-66
2022/05/16 11:52:49;;;;;;;1.90;0.23;;;14.20;99.90;;;;;;4940589;29;20559;-66
2022/05/16 12:01:07;;;;;;;0.40;0.20;;;14.10;99.90;;;;;;4946054;29;20485;-66
2022/05/16 12:03:41;;;;;;;0.40;0.20;;;14.10;99.90;;;;;;4931651;29;20927;-66
2022/05/16 12:06:23;;;;;;;0.40;0.20;;;14.10;99.90;;;;;;4939665;29;20477;-66
2022/05/16 12:09:29;;;;;;;0.40;0.30;;;14.10;99.90;;;;;;4945186;29;20469;-66
2022/05/16 12:12:03;;;;;;;0.67;0.20;;;14.10;99.90;;;;;;4934962;29;20552;-66
2022/05/16 12:14:35;;;;;;;0.40;0.27;;;14.00;99.90;;;;;;4927912;29;20482;-66
2022/05/16 12:17:30;;;;;;;0.40;0.20;;;14.00;99.90;;;;;;4934646;29;20462;-67
2022/05/16 12:20:00;;;;;;;2.87;0.23;;;13.90;99.90;;;;;;4946460;29;20785;-66
2022/05/16 12:22:47;;;;;;;0.30;0.30;;;13.80;99.90;;;;;;4943119;29;20465;-65
2022/05/16 12:25:32;;;;;;;0.43;0.30;;;13.90;99.90;;;;;;4944514;29;20480;-66
2022/05/16 12:28:23;;;;;;;0.40;0.20;;;13.90;99.90;;;;;;4931142;29;20466;-65
2022/05/16 12:30:56;;;;;;;0.40;0.30;;;13.80;99.90;;;;;;4938289;29;20485;-65
2022/05/16 12:33:52;;;;;;;0.40;0.30;;;13.80;99.90;;;;;;4934327;29;20473;-66
2022/05/16 12:36:24;;;;;;;0.30;0.30;;;13.90;99.90;;;;;;4945769;29;20485;-65
2022/05/16 12:39:00;;;;;;;0.40;0.30;;;13.90;99.90;;;;;;4927066;29;20800;-65
2022/05/16 12:41:54;;;;;;;0.30;0.20;;;13.90;99.90;;;;;;4938530;29;20941;-65
2022/05/16 12:44:47;;;;;;;0.40;0.30;;;13.80;99.90;;;;;;4931623;29;20461;-65
2022/05/16 12:47:43;;;;;;;0.80;0.30;;;13.80;99.90;;;;;;4936077;29;20474;-66
2022/05/16 12:50:26;;;;;;;0.50;0.30;;;13.80;99.90;;;;;;4941281;29;20497;-66
2022/05/16 12:53:34;;;;;;;0.90;0.40;;;13.70;99.90;;;;;;4945129;29;20569;-66
2022/05/16 12:56:09;;;;;;;0.60;0.30;;;13.70;99.90;;;;;;4935767;29;20485;-65
2022/05/16 12:58:48;;;;;;;0.50;0.30;;;13.70;99.90;;;;;;4937024;29;20460;-65
2022/05/16 13:01:27;;;;;;;0.40;0.30;;;13.70;99.90;;;;;;4942290;29;20810;-65
2022/05/16 13:04:12;;;;;;;1.00;0.40;;;13.70;99.90;;;;;;4945518;29;20458;-66
2022/05/16 13:07:01;;;;;;;1.00;0.20;;;13.60;99.90;;;;;;4944166;29;20470;-66
2022/05/16 13:09:50;;;;;;;0.43;0.20;;;13.60;99.90;;;;;;4943442;29;20566;-66
2022/05/16 13:12:46;;;;;;;0.83;0.30;;;13.50;99.90;;;;;;4943860;29;20477;-66
2022/05/16 13:15:26;;;;;;;0.40;0.20;;;13.60;99.90;;;;;;4938870;29;20900;-66
2022/05/16 13:17:59;;;;;;;1.07;0.20;;;13.50;99.90;;;;;;4941014;29;20461;-66
2022/05/16 13:20:34;;;;;;;0.93;0.37;;;13.50;99.90;;;;;;4939566;29;20466;-65
2022/05/16 13:23:07;;;;;;;0.30;0.30;;;13.50;99.90;;;;;;4939900;29;20469;-65
2022/05/16 13:31:35;;;;;;;1.50;0.40;;;13.50;99.90;;;;;;4899463;29;20503;-65
2022/05/16 13:34:07;;;;;;;0.50;0.37;;;13.60;99.90;;;;;;4904112;29;20486;-65
2022/05/16 13:36:38;;;;;;;0.40;0.27;;;13.60;99.90;;;;;;4903996;29;20475;-66
2022/05/16 13:39:14;;;;;;;0.40;0.20;;;13.70;99.90;;;;;;4900132;29;20475;-65
2022/05/16 13:41:45;;;;;;;0.43;0.40;;;13.70;99.90;;;;;;4903485;29;20471;-65
2022/05/16 13:44:17;;;;;;;0.30;0.30;;;13.70;99.90;;;;;;4893573;29;21025;-65
2022/05/16 13:46:47;;;;;;;0.70;0.40;;;13.80;99.90;;;;;;4900088;29;20543;-65
2022/05/16 13:49:18;;;;;;;0.70;0.30;;;13.90;99.90;;;;;;4904105;29;20582;-65
2022/05/16 13:51:51;;;;;;;0.60;0.30;;;14.00;99.90;;;;;;4893914;29;20528;-65
2022/05/16 13:54:28;;;;;;;0.40;0.30;;;14.10;99.90;;;;;;4891032;29;20472;-66
2022/05/16 13:57:00;;;;;;;0.40;0.30;;;14.20;99.90;;;;;;4905457;29;20467;-65
2022/05/16 13:59:33;;;;;;;0.40;0.30;;;14.10;99.90;;;;;;4896341;29;20471;-65
2022/05/16 14:02:08;;;;;;;1.10;0.20;;;14.20;99.90;;;;;;4907091;29;20466;-66
2022/05/16 14:04:43;;;;;;;0.40;0.30;;;14.20;99.90;;;;;;4943786;29;20462;-66
2022/05/16 14:07:18;;;;;;;0.80;0.40;;;14.30;99.90;;;;;;4945873;29;20497;-65
2022/05/16 14:09:54;;;;;;;0.50;0.20;;;14.30;99.90;;;;;;4936125;29;20469;-65